Time;durP1;ratioP1;P1;durP2;ratioP2;P2;SDS_P1;SDS_P2;PMS_P1;PMS_P2;Temp;Humidity;BMP_temperature;BMP_pressure;BME280_temperature;BME280_humidity;BME280_pressure;Samples;Min_cycle;Max_cycle;Signal;HPM_P1;HPM_P2
2023/05/24 00:01:06;;;;;;;6.97;4.57;;;;;;;16.00;100.00;100078.88;5529844;32;34425;-70
2023/05/24 00:04:13;;;;;;;7.53;4.47;;;;;;;15.99;100.00;100070.00;5529789;32;34979;-69
2023/05/24 00:07:20;;;;;;;9.13;4.37;;;;;;;16.14;100.00;100072.44;5529775;32;34139;-70
2023/05/24 00:10:27;;;;;;;8.63;4.00;;;;;;;16.13;100.00;100069.97;5529042;32;34965;-69
2023/05/24 00:13:33;;;;;;;7.00;4.10;;;;;;;16.08;100.00;100073.28;5529686;32;34657;-69
2023/05/24 00:16:45;;;;;;;6.07;4.20;;;;;;;16.08;100.00;100071.41;5529619;32;35615;-70
2023/05/24 00:19:51;;;;;;;7.60;5.00;;;;;;;16.04;100.00;100064.84;5529713;32;34143;-70
2023/05/24 00:23:01;;;;;;;11.55;4.75;;;;;;;16.08;100.00;100059.88;5529575;32;34492;-70
2023/05/24 00:26:08;;;;;;;6.45;4.57;;;;;;;16.06;100.00;100054.78;5529591;32;33805;-70
2023/05/24 00:29:17;;;;;;;11.45;5.45;;;;;;;16.11;100.00;100056.00;5529618;32;34244;-69
2023/05/24 00:32:24;;;;;;;11.95;5.10;;;;;;;16.32;100.00;100051.16;5529694;32;34116;-69
2023/05/24 00:35:35;;;;;;;6.65;5.12;;;;;;;16.19;100.00;100053.87;5529561;32;35006;-69
2023/05/24 00:38:41;;;;;;;7.87;5.37;;;;;;;16.21;100.00;100056.38;5528665;32;33970;-69
2023/05/24 00:41:49;;;;;;;9.93;5.93;;;;;;;16.18;100.00;100048.75;5529591;32;34585;-69
2023/05/24 00:44:55;;;;;;;8.50;5.28;;;;;;;16.05;100.00;100049.63;5529336;32;34090;-69
2023/05/24 00:48:03;;;;;;;10.50;5.55;;;;;;;16.09;100.00;100050.84;5528559;32;34077;-68
2023/05/24 00:51:10;;;;;;;10.00;5.50;;;;;;;15.99;100.00;100058.47;5529293;32;33862;-69
2023/05/24 00:54:17;;;;;;;8.02;4.93;;;;;;;15.97;100.00;100050.69;5529150;32;33915;-70
2023/05/24 00:57:23;;;;;;;7.07;5.50;;;;;;;15.96;100.00;100054.37;5529417;32;33814;-70
2023/05/24 01:00:31;;;;;;;7.40;5.15;;;;;;;16.00;100.00;100049.44;5528952;32;35208;-70
2023/05/24 01:03:38;;;;;;;7.45;5.22;;;;;;;16.00;100.00;100057.47;5529371;32;35590;-69
2023/05/24 01:07:15;;;;;;;8.43;5.10;;;;;;;16.07;100.00;100060.94;5528323;32;34222;-69
2023/05/24 01:10:38;;;;;;;6.65;4.97;;;;;;;15.99;100.00;100064.66;5528399;32;34175;-70
2023/05/24 01:14:15;;;;;;;11.82;5.10;;;;;;;16.05;100.00;100054.97;5529066;32;34101;-69
2023/05/24 01:17:22;;;;;;;6.15;4.47;;;;;;;16.04;100.00;100056.00;5529047;32;33883;-70
2023/05/24 01:20:32;;;;;;;12.70;4.18;;;;;;;15.99;100.00;100053.13;5529288;32;34277;-69
2023/05/24 01:24:03;;;;;;;6.12;4.18;;;;;;;16.08;100.00;100054.53;5529090;32;34857;-69
2023/05/24 01:27:16;;;;;;;6.37;4.00;;;;;;;16.13;100.00;100062.75;5528146;32;34068;-69
2023/05/24 01:30:22;;;;;;;7.68;4.57;;;;;;;16.15;100.00;100055.34;5529069;32;33860;-70
2023/05/24 01:33:33;;;;;;;6.68;4.18;;;;;;;16.08;100.00;100058.03;5529020;32;33968;-69
2023/05/24 01:36:43;;;;;;;6.10;4.05;;;;;;;16.10;100.00;100047.13;5528131;32;34048;-69
2023/05/24 01:39:51;;;;;;;6.50;4.20;;;;;;;16.09;100.00;100049.00;5528990;32;34280;-69
2023/05/24 01:43:19;;;;;;;6.30;4.15;;;;;;;16.06;100.00;100049.41;5529045;32;34119;-67
2023/05/24 01:46:32;;;;;;;7.03;4.70;;;;;;;16.06;100.00;100036.03;5528897;32;34172;-69
2023/05/24 01:49:43;;;;;;;6.10;4.00;;;;;;;16.03;100.00;100041.78;5528964;32;34642;-69
2023/05/24 01:52:57;;;;;;;7.05;4.37;;;;;;;15.97;100.00;100031.97;5529211;32;34748;-69
2023/05/24 01:56:06;;;;;;;4.65;3.55;;;;;;;16.11;100.00;100038.09;5528644;32;34685;-69
2023/05/24 01:59:14;;;;;;;11.82;4.30;;;;;;;16.05;100.00;100031.72;5528783;32;34038;-69
2023/05/24 02:02:19;;;;;;;5.90;4.50;;;;;;;16.02;100.00;100034.00;5528845;32;33765;-69
2023/05/24 02:05:25;;;;;;;7.78;4.60;;;;;;;16.09;100.00;100032.94;5528712;32;34106;-69
2023/05/24 02:08:36;;;;;;;7.90;4.62;;;;;;;16.05;100.00;100026.38;5528870;32;34819;-69
2023/05/24 02:11:47;;;;;;;8.65;4.82;;;;;;;16.08;100.00;100028.59;5527870;32;34601;-71
2023/05/24 02:14:53;;;;;;;7.10;5.07;;;;;;;15.93;100.00;100044.09;5528682;32;34220;-69
2023/05/24 02:18:06;;;;;;;8.50;5.35;;;;;;;15.97;100.00;100036.47;5527903;32;34600;-68
2023/05/24 02:21:14;;;;;;;10.05;5.40;;;;;;;15.87;100.00;100042.28;5528638;32;34101;-69
2023/05/24 02:24:22;;;;;;;10.63;5.40;;;;;;;15.81;100.00;100036.94;5528724;32;35014;-69
2023/05/24 02:27:31;;;;;;;9.68;5.85;;;;;;;15.74;100.00;100039.63;5528589;32;34225;-69
2023/05/24 02:30:43;;;;;;;9.23;6.00;;;;;;;15.58;100.00;100037.41;5528460;32;34297;-67
2023/05/24 02:33:51;;;;;;;8.77;6.75;;;;;;;15.52;100.00;100046.25;5528435;32;34104;-69
2023/05/24 02:36:58;;;;;;;10.13;6.87;;;;;;;15.46;100.00;100047.03;5528510;32;35117;-69
2023/05/24 02:40:06;;;;;;;11.35;6.97;;;;;;;15.38;100.00;100034.72;5528517;32;33868;-69
2023/05/24 02:43:13;;;;;;;9.68;7.05;;;;;;;15.38;100.00;100033.91;5527421;32;34177;-69
2023/05/24 02:46:21;;;;;;;8.93;7.15;;;;;;;15.30;100.00;100024.22;5528435;32;34323;-69
2023/05/24 02:49:30;;;;;;;8.98;6.80;;;;;;;15.27;100.00;100026.50;5528389;32;34528;-70
2023/05/24 02:52:40;;;;;;;9.88;7.30;;;;;;;15.23;100.00;100026.91;5528289;32;35088;-69
2023/05/24 02:55:49;;;;;;;10.90;7.15;;;;;;;15.19;100.00;100030.22;5528135;32;34295;-71
2023/05/24 02:58:58;;;;;;;;;;;;;;;15.33;100.00;100026.50;5528655;32;34140;-69
2023/05/24 03:02:05;;;;;;;9.20;6.70;;;;;;;15.41;100.00;100031.62;5528413;32;34514;-69
2023/05/24 03:05:13;;;;;;;9.88;7.37;;;;;;;15.39;100.00;100031.03;5528271;32;34166;-69
2023/05/24 03:08:22;;;;;;;9.98;6.78;;;;;;;15.44;100.00;100043.78;5528264;32;33975;-69
2023/05/24 03:11:31;;;;;;;11.32;8.02;;;;;;;15.43;100.00;100045.62;5528125;32;34004;-69
2023/05/24 03:14:39;;;;;;;11.15;7.72;;;;;;;15.46;100.00;100055.06;5528109;32;34065;-70
2023/05/24 03:17:45;;;;;;;14.65;8.00;;;;;;;15.37;100.00;100050.97;5527526;32;34011;-69
2023/05/24 03:20:53;;;;;;;9.07;6.85;;;;;;;15.36;100.00;100051.97;5528002;32;34064;-70
2023/05/24 03:24:00;;;;;;;11.25;7.65;;;;;;;15.34;100.00;100048.72;5527715;32;34007;-69
2023/05/24 03:27:06;;;;;;;13.82;7.60;;;;;;;15.45;100.00;100043.53;5530407;32;35017;-71
2023/05/24 03:30:13;;;;;;;11.05;7.85;;;;;;;15.52;100.00;100043.56;5542300;32;35125;-69
2023/05/24 03:33:21;;;;;;;12.73;7.35;;;;;;;15.49;100.00;100030.59;5547109;32;34762;-69
2023/05/24 03:36:30;;;;;;;13.13;8.07;;;;;;;15.51;100.00;100048.09;5547259;32;34644;-69
2023/05/24 03:39:39;;;;;;;11.30;8.23;;;;;;;15.55;100.00;100045.81;5547067;32;34287;-69
2023/05/24 03:42:49;;;;;;;13.05;8.30;;;;;;;15.49;100.00;100041.28;5547166;32;34732;-70
2023/05/24 03:45:56;;;;;;;14.45;9.38;;;;;;;15.49;100.00;100043.97;5546876;32;34701;-69
2023/05/24 03:49:03;;;;;;;14.45;9.27;;;;;;;15.54;100.00;100045.00;5546789;32;34196;-70
2023/05/24 03:52:08;;;;;;;13.65;9.68;;;;;;;15.50;100.00;100051.75;5546706;32;34708;-69
2023/05/24 03:55:15;;;;;;;12.50;9.85;;;;;;;15.53;100.00;100053.25;5546534;32;34249;-69
2023/05/24 03:58:25;;;;;;;20.70;10.77;;;;;;;15.48;100.00;100061.03;5546570;32;34455;-71
2023/05/24 04:01:35;;;;;;;15.38;11.10;;;;;;;15.50;100.00;100057.09;5545803;32;34100;-69
2023/05/24 04:04:43;;;;;;;12.27;10.38;;;;;;;15.62;100.00;100070.72;5546368;32;34057;-70
2023/05/24 04:07:49;;;;;;;21.23;11.12;;;;;;;15.67;100.00;100065.56;5546249;32;34792;-69
2023/05/24 04:10:58;;;;;;;16.58;10.43;;;;;;;15.82;100.00;100066.16;5546452;32;33455;-69
2023/05/24 04:14:05;;;;;;;17.15;10.85;;;;;;;15.99;100.00;100078.03;5546073;32;34170;-69
2023/05/24 04:17:12;;;;;;;16.20;10.45;;;;;;;16.07;100.00;100085.03;5544797;32;33695;-71
2023/05/24 04:20:24;;;;;;;13.93;10.43;;;;;;;16.15;100.00;100081.28;5546125;32;34856;-69
2023/05/24 04:23:33;;;;;;;20.40;11.38;;;;;;;16.24;100.00;100091.56;5546282;32;34037;-69
2023/05/24 04:26:43;;;;;;;13.13;11.50;;;;;;;16.18;100.00;100088.88;5546157;32;33913;-70
2023/05/24 04:29:51;;;;;;;16.25;11.93;;;;;;;16.24;100.00;100088.88;5546128;32;33483;-70
2023/05/24 04:33:00;;;;;;;17.83;12.25;;;;;;;16.28;100.00;100095.44;5545863;32;35075;-69
2023/05/24 04:36:10;;;;;;;18.65;12.75;;;;;;;16.38;100.00;100095.81;5547403;32;35070;-70
2023/05/24 04:39:17;;;;;;;19.25;12.93;;;;;;;16.46;100.00;100106.28;5548701;32;33782;-70
2023/05/24 04:42:23;;;;;;;16.17;12.55;;;;;;;16.53;100.00;100107.09;5548563;32;34244;-71
2023/05/24 04:45:29;;;;;;;15.95;12.73;;;;;;;16.61;100.00;100100.69;5548653;32;34837;-70
2023/05/24 04:48:34;;;;;;;17.80;12.15;;;;;;;16.53;100.00;100104.41;5548557;32;34295;-68
2023/05/24 04:51:43;;;;;;;20.75;13.50;;;;;;;16.39;100.00;100105.50;5548429;32;34009;-70
2023/05/24 04:54:50;;;;;;;15.93;12.80;;;;;;;16.47;100.00;100107.09;5548357;32;34343;-70
2023/05/24 04:57:58;;;;;;;15.27;12.70;;;;;;;16.68;100.00;100109.53;5548303;32;34835;-69
2023/05/24 05:01:02;;;;;;;19.92;13.05;;;;;;;16.64;100.00;100108.31;5548576;32;33790;-69
2023/05/24 05:04:06;;;;;;;18.23;12.82;;;;;;;16.68;100.00;100109.53;5548553;32;34039;-71
2023/05/24 05:07:11;;;;;;;18.52;13.48;;;;;;;16.73;100.00;100104.34;5548353;32;34385;-67
2023/05/24 05:10:14;;;;;;;19.85;13.75;;;;;;;16.93;100.00;100118.44;5548455;32;34780;-73
2023/05/24 05:13:18;;;;;;;17.62;13.75;;;;;;;17.17;100.00;100122.22;5548224;32;34101;-69
2023/05/24 05:16:21;;;;;;;15.13;13.02;;;;;;;17.20;100.00;100129.00;5547548;32;34043;-67
2023/05/24 05:19:25;;;;;;;18.58;12.80;;;;;;;17.14;100.00;100124.47;5548059;32;34766;-71
2023/05/24 05:22:28;;;;;;;23.08;14.40;;;;;;;17.05;100.00;100120.44;5548226;32;33943;-68
2023/05/24 05:25:34;;;;;;;17.70;14.10;;;;;;;17.06;100.00;100125.56;5547511;32;34764;-68
2023/05/24 05:28:38;;;;;;;17.85;14.68;;;;;;;16.76;100.00;100111.94;5531408;32;35016;-67
2023/05/24 05:31:41;;;;;;;17.70;13.52;;;;;;;16.80;100.00;100115.81;5528774;32;33788;-68
2023/05/24 05:34:45;;;;;;;20.12;14.20;;;;;;;16.70;100.00;100112.78;5528718;32;35157;-68
2023/05/24 05:37:49;;;;;;;17.05;14.25;;;;;;;16.77;100.00;100118.13;5534768;32;34408;-68
2023/05/24 05:40:52;;;;;;;20.45;14.05;;;;;;;16.91;100.00;100128.56;5539958;32;34361;-68
2023/05/24 05:43:55;;;;;;;19.40;13.57;;;;;;;16.92;100.00;100116.81;5543211;32;34234;-68
2023/05/24 05:46:59;;;;;;;18.30;13.65;;;;;;;17.20;100.00;100124.44;5540017;32;34214;-66
2023/05/24 05:50:06;;;;;;;15.38;12.43;;;;;;;17.20;100.00;100127.12;5546001;32;33717;-70
2023/05/24 05:53:10;;;;;;;14.65;12.27;;;;;;;17.41;100.00;100139.38;5543885;32;34138;-69
2023/05/24 05:56:15;;;;;;;16.50;11.88;;;;;;;17.56;100.00;100147.09;5528130;32;33877;-69
2023/05/24 05:59:19;;;;;;;18.20;11.35;;;;;;;17.53;100.00;100137.59;5528730;32;33956;-67
2023/05/24 06:02:23;;;;;;;24.08;11.55;;;;;;;17.54;100.00;100141.13;5535043;32;34503;-69
2023/05/24 06:05:29;;;;;;;14.45;12.20;;;;;;;17.50;100.00;100145.28;5529706;32;34924;-68
2023/05/24 06:08:34;;;;;;;12.57;10.57;;;;;;;17.71;100.00;100143.06;5540198;32;33950;-70
2023/05/24 06:11:38;;;;;;;13.77;10.45;;;;;;;17.91;100.00;100147.44;5536448;32;34033;-68
2023/05/24 06:14:43;;;;;;;11.73;10.02;;;;;;;18.34;100.00;100142.84;5538559;32;34094;-70
2023/05/24 06:17:50;;;;;;;14.93;10.52;;;;;;;18.53;100.00;100157.09;5537766;32;35541;-69
2023/05/24 06:20:53;;;;;;;14.50;9.93;;;;;;;18.46;100.00;100148.28;5530830;32;34165;-70
2023/05/24 06:24:01;;;;;;;11.98;9.88;;;;;;;18.58;100.00;100146.53;5545278;32;34500;-68
2023/05/24 06:27:05;;;;;;;17.48;10.05;;;;;;;18.56;100.00;100146.75;5541546;32;33913;-71
2023/05/24 06:30:10;;;;;;;12.65;9.70;;;;;;;18.46;100.00;100150.97;5534442;32;34765;-69
2023/05/24 06:33:14;;;;;;;11.27;9.40;;;;;;;18.49;100.00;100154.03;5542677;32;34137;-70
2023/05/24 06:36:17;;;;;;;13.25;9.10;;;;;;;18.62;100.00;100159.28;5529866;32;33481;-69
2023/05/24 06:39:20;;;;;;;21.25;10.05;;;;;;;18.85;100.00;100158.56;5541016;32;34813;-70
2023/05/24 06:42:24;;;;;;;11.73;8.95;;;;;;;19.02;100.00;100166.84;5546910;32;34029;-70
2023/05/24 06:45:30;;;;;;;11.18;9.27;;;;;;;19.43;100.00;100174.09;5547389;32;34708;-70
2023/05/24 06:48:33;;;;;;;12.65;9.05;;;;;;;19.55;100.00;100168.78;5546886;32;33860;-68
2023/05/24 06:51:38;;;;;;;11.73;9.07;;;;;;;19.51;100.00;100171.09;5542778;32;33960;-69
2023/05/24 06:54:42;;;;;;;11.25;8.55;;;;;;;19.41;100.00;100168.94;5543601;32;34665;-70
2023/05/24 06:57:46;;;;;;;12.07;8.85;;;;;;;19.72;100.00;100178.63;5539710;32;34161;-70
2023/05/24 07:00:49;;;;;;;11.45;8.48;;;;;;;19.21;100.00;100164.91;5535606;32;34382;-68
2023/05/24 07:03:52;;;;;;;9.55;8.52;;;;;;;19.37;100.00;100170.44;5535301;32;34739;-68
2023/05/24 07:06:56;;;;;;;14.07;8.55;;;;;;;19.48;100.00;100182.31;5535165;32;34104;-70
2023/05/24 07:10:00;;;;;;;11.77;8.57;;;;;;;19.45;100.00;100180.09;5536660;32;34020;-69
2023/05/24 07:13:04;;;;;;;10.77;8.55;;;;;;;19.18;100.00;100178.81;5528708;32;33852;-69
2023/05/24 07:16:08;;;;;;;14.13;8.82;;;;;;;19.37;100.00;100185.75;5531216;32;34464;-69
2023/05/24 07:19:12;;;;;;;12.23;8.65;;;;;;;19.48;100.00;100187.69;5526987;32;34138;-68
2023/05/24 07:22:15;;;;;;;13.62;9.57;;;;;;;19.87;100.00;100191.62;5536429;32;34502;-68
2023/05/24 07:25:19;;;;;;;11.50;8.02;;;;;;;19.34;100.00;100183.53;5532416;32;34892;-69
2023/05/24 07:28:22;;;;;;;11.55;8.52;;;;;;;20.35;100.00;100194.94;5535410;32;34156;-68
2023/05/24 07:31:28;;;;;;;11.20;8.20;;;;;;;20.36;100.00;100198.47;5531006;32;34294;-67
2023/05/24 07:34:32;;;;;;;9.38;8.00;;;;;;;21.10;100.00;100212.94;5534359;32;33994;-70
2023/05/24 07:37:36;;;;;;;8.85;7.70;;;;;;;21.06;100.00;100206.37;5537380;32;34386;-69
2023/05/24 07:40:40;;;;;;;11.95;8.05;;;;;;;21.75;100.00;100210.63;5529137;32;34061;-69
2023/05/24 07:43:44;;;;;;;11.15;7.40;;;;;;;22.47;100.00;100211.47;5533105;32;34128;-69
2023/05/24 07:46:50;;;;;;;11.50;8.13;;;;;;;22.90;100.00;100210.72;5531198;32;34875;-69
2023/05/24 07:49:56;;;;;;;16.27;7.72;;;;;;;22.59;100.00;100211.38;5527484;32;33873;-69
2023/05/24 07:53:01;;;;;;;10.55;7.68;;;;;;;22.74;100.00;100213.50;5527298;32;34902;-70
2023/05/24 07:56:06;;;;;;;13.18;8.00;;;;;;;22.05;100.00;100216.56;5526870;32;34770;-69
2023/05/24 07:59:12;;;;;;;9.55;7.40;;;;;;;22.63;100.00;100209.81;5531869;32;34718;-69
2023/05/24 08:02:17;;;;;;;11.00;7.50;;;;;;;22.15;100.00;100218.59;5529670;32;33662;-68
2023/05/24 08:05:20;;;;;;;12.07;8.02;;;;;;;22.92;100.00;100218.56;5535865;32;33980;-69
2023/05/24 08:08:24;;;;;;;8.48;7.35;;;;;;;22.75;100.00;100224.03;5535796;32;34318;-69
2023/05/24 08:11:29;;;;;;;10.57;7.57;;;;;;;22.88;100.00;100225.56;5537180;32;33795;-68
2023/05/24 08:14:33;;;;;;;10.02;7.90;;;;;;;23.42;98.26;100233.75;5536591;32;34532;-70
2023/05/24 08:17:37;;;;;;;16.12;7.15;;;;;;;23.46;98.83;100232.19;5544070;32;34170;-67
2023/05/24 08:20:41;;;;;;;11.40;8.13;;;;;;;24.12;92.84;100225.44;5546295;32;35068;-69
2023/05/24 08:23:45;;;;;;;11.77;7.95;;;;;;;22.64;100.00;100241.19;5547426;32;34146;-70
2023/05/24 08:26:52;;;;;;;14.80;8.00;;;;;;;23.36;97.18;100246.41;5549149;32;34029;-69
2023/05/24 08:29:57;;;;;;;7.95;6.60;;;;;;;24.17;91.50;100241.78;5548489;32;34058;-69
2023/05/24 08:33:02;;;;;;;8.43;6.82;;;;;;;25.43;79.09;100247.00;5546003;32;33944;-70
2023/05/24 08:36:06;;;;;;;14.25;6.40;;;;;;;25.15;78.00;100253.72;5548442;32;34208;-71
2023/05/24 08:39:10;;;;;;;9.55;6.60;;;;;;;26.20;70.74;100257.66;5540333;32;34712;-71
2023/05/24 08:42:15;;;;;;;9.25;6.80;;;;;;;25.35;70.96;100252.97;5528895;32;33955;-69
2023/05/24 08:45:21;;;;;;;8.63;5.93;;;;;;;24.09;80.19;100253.91;5545553;32;34791;-71
2023/05/24 08:48:27;;;;;;;9.88;6.07;;;;;;;24.97;76.92;100254.19;5543247;32;34091;-67
2023/05/24 08:51:30;;;;;;;8.05;5.65;;;;;;;24.93;77.17;100248.47;5547694;32;34013;-73
2023/05/24 08:54:35;;;;;;;6.68;5.80;;;;;;;25.12;72.55;100265.13;5542091;32;33912;-70
2023/05/24 08:57:40;;;;;;;11.63;6.22;;;;;;;25.00;75.94;100269.94;5548010;32;34151;-71
2023/05/24 09:00:44;;;;;;;6.80;5.15;;;;;;;25.64;70.74;100270.44;5547287;32;33835;-72
2023/05/24 09:03:49;;;;;;;6.28;5.10;;;;;;;25.04;70.59;100269.16;5547024;32;34930;-71
2023/05/24 09:06:55;;;;;;;7.32;5.03;;;;;;;24.51;71.25;100280.22;5548055;32;34600;-70
2023/05/24 09:10:06;;;;;;;9.65;5.55;;;;;;;24.24;76.45;100272.19;5548068;32;34818;-68
2023/05/24 09:13:11;;;;;;;12.35;5.72;;;;;;;23.38;80.80;100272.16;5546986;32;33973;-70
2023/05/24 09:16:15;;;;;;;12.57;5.10;;;;;;;24.23;80.02;100265.97;5536304;32;34149;-71
2023/05/24 09:19:18;;;;;;;6.62;4.97;;;;;;;27.04;64.68;100275.22;5527850;32;34174;-69
2023/05/24 09:22:24;;;;;;;7.47;4.80;;;;;;;26.20;63.44;100270.44;5527885;32;34081;-72
2023/05/24 09:25:28;;;;;;;5.53;4.47;;;;;;;26.57;61.37;100262.81;5531244;32;35079;-69
2023/05/24 09:28:32;;;;;;;7.97;4.90;;;;;;;25.34;65.31;100260.28;5544097;32;34137;-71
2023/05/24 09:31:38;;;;;;;11.23;4.37;;;;;;;26.74;61.09;100257.87;5547608;32;34094;-67
2023/05/24 09:34:43;;;;;;;8.63;4.37;;;;;;;27.80;57.35;100258.44;5547217;32;33902;-66
2023/05/24 09:37:48;;;;;;;5.80;4.47;;;;;;;27.44;56.34;100266.84;5546581;32;34042;-68
2023/05/24 09:41:00;;;;;;;7.28;4.25;;;;;;;25.76;63.08;100251.16;5547784;32;34731;-69
2023/05/24 09:44:06;;;;;;;4.65;4.10;;;;;;;27.20;58.34;100255.81;5547981;32;34587;-69
2023/05/24 09:47:11;;;;;;;15.15;4.40;;;;;;;24.88;65.69;100255.78;5547709;32;33828;-69
2023/05/24 09:50:22;;;;;;;5.75;4.45;;;;;;;27.24;58.62;100264.22;5551625;32;34915;-69
2023/05/24 09:53:47;;;;;;;9.60;4.55;;;;;;;27.36;58.89;100258.44;5547178;32;34572;-68
2023/05/24 09:56:51;;;;;;;5.45;4.12;;;;;;;27.35;58.72;100254.91;5542676;32;34157;-70
2023/05/24 09:59:55;;;;;;;8.60;4.07;;;;;;;26.44;59.97;100246.22;5547882;32;34137;-68
2023/05/24 10:03:09;;;;;;;11.07;4.50;;;;;;;25.98;62.61;100268.03;5548232;32;34063;-68
2023/05/24 10:06:14;;;;;;;8.82;4.62;;;;;;;25.92;64.20;100266.38;5547359;32;34469;-71
2023/05/24 10:09:17;;;;;;;5.45;3.85;;;;;;;26.36;60.08;100272.91;5547688;32;34028;-70
2023/05/24 10:12:24;;;;;;;6.90;4.37;;;;;;;27.42;55.51;100268.22;5546882;32;34228;-70
2023/05/24 10:15:30;;;;;;;7.18;4.20;;;;;;;27.88;54.91;100268.75;5544429;32;33850;-67
2023/05/24 10:18:34;;;;;;;5.78;3.70;;;;;;;27.25;57.03;100266.66;5547826;32;34057;-71
2023/05/24 10:21:41;;;;;;;11.38;3.67;;;;;;;26.34;57.74;100263.38;5547762;32;34040;-69
2023/05/24 10:24:48;;;;;;;9.15;4.40;;;;;;;28.68;51.77;100269.91;5547789;32;33900;-71
2023/05/24 10:28:06;;;;;;;7.87;3.45;;;;;;;29.69;48.22;100265.91;5537344;32;34030;-67
2023/05/24 10:31:11;;;;;;;;;;;;;;;29.21;49.34;100261.66;5528568;32;34889;-70
2023/05/24 10:34:15;;;;;;;4.87;3.70;;;;;;;27.37;53.42;100262.78;5527449;32;34366;-72
2023/05/24 10:37:20;;;;;;;5.62;3.90;;;;;;;28.93;48.92;100256.00;5533754;32;34438;-71
2023/05/24 10:40:25;;;;;;;4.62;3.20;;;;;;;28.35;48.89;100259.91;5547247;32;33942;-71
2023/05/24 10:43:30;;;;;;;6.53;3.47;;;;;;;28.63;48.52;100261.78;5547366;32;34057;-72
2023/05/24 10:46:34;;;;;;;8.93;3.40;;;;;;;29.44;46.67;100260.00;5530501;32;34729;-69
2023/05/24 10:49:53;;;;;;;5.62;3.30;;;;;;;31.42;43.29;100258.84;5527648;32;34266;-70
2023/05/24 10:53:16;;;;;;;6.53;3.80;;;;;;;31.74;41.97;100251.56;5527017;32;34019;-70
2023/05/24 10:56:22;;;;;;;5.12;3.40;;;;;;;30.20;44.04;100243.22;5539042;32;33926;-70
2023/05/24 10:59:38;;;;;;;5.07;3.22;;;;;;;29.85;44.16;100252.00;5536617;32;34233;-71
2023/05/24 11:02:42;;;;;;;4.15;3.33;;;;;;;29.61;44.60;100252.91;5531421;32;34872;-72
2023/05/24 11:05:46;;;;;;;5.55;3.30;;;;;;;29.93;44.23;100257.63;5530502;32;34072;-69
2023/05/24 11:08:51;;;;;;;5.15;3.00;;;;;;;31.75;39.88;100255.94;5528288;32;34176;-71
2023/05/24 11:11:58;;;;;;;6.45;3.08;;;;;;;32.78;37.88;100249.12;5527196;32;34288;-69
2023/05/24 11:15:02;;;;;;;4.33;3.17;;;;;;;31.70;39.74;100251.38;5526381;32;35133;-72
2023/05/24 11:18:08;;;;;;;5.75;3.10;;;;;;;31.17;42.21;100259.44;5545314;32;33642;-69
2023/05/24 11:21:14;;;;;;;5.15;3.20;;;;;;;33.13;37.84;100243.72;5547050;32;34070;-69
2023/05/24 11:24:20;;;;;;;3.25;2.92;;;;;;;31.32;41.14;100239.88;5547411;32;33824;-70
2023/05/24 11:27:25;;;;;;;3.70;2.92;;;;;;;32.41;39.95;100243.28;5547076;32;34713;-70
2023/05/24 11:30:32;;;;;;;3.92;3.37;;;;;;;32.44;39.67;100226.16;5547312;32;35537;-70
2023/05/24 11:33:41;;;;;;;11.57;3.58;;;;;;;32.37;39.18;100228.56;5547087;32;34785;-69
2023/05/24 11:36:46;;;;;;;;;;;;;;;31.30;41.15;100217.47;5547327;32;34118;-69
2023/05/24 11:39:51;;;;;;;3.20;2.90;;;;;;;32.51;38.31;100216.34;5545991;32;34986;-71
2023/05/24 11:42:56;;;;;;;5.50;3.03;;;;;;;34.89;35.18;100237.00;5546608;32;33941;-68
2023/05/24 11:46:00;;;;;;;5.12;3.40;;;;;;;32.34;37.84;100217.09;5549067;32;33911;-69
2023/05/24 11:49:05;;;;;;;4.65;3.10;;;;;;;31.95;38.03;100211.53;5548030;32;34193;-71
2023/05/24 11:52:10;;;;;;;4.87;3.40;;;;;;;32.72;36.95;100209.19;5535794;32;34743;-68
2023/05/24 11:55:15;;;;;;;3.95;3.20;;;;;;;31.48;39.85;100218.41;5548857;32;33593;-71
2023/05/24 11:58:23;;;;;;;8.43;3.30;;;;;;;32.43;39.05;100205.34;5548665;32;34163;-70
2023/05/24 12:01:27;;;;;;;4.75;3.10;;;;;;;31.79;39.12;100211.13;5548084;32;33593;-69
2023/05/24 12:04:33;;;;;;;3.37;3.00;;;;;;;30.82;41.77;100219.06;5543283;32;34194;-70
2023/05/24 12:07:37;;;;;;;8.27;3.10;;;;;;;32.66;38.89;100209.66;5529438;32;34822;-69
2023/05/24 12:10:42;;;;;;;5.20;3.45;;;;;;;34.19;36.23;100220.25;5547232;32;34053;-73
2023/05/24 12:13:46;;;;;;;7.65;3.00;;;;;;;33.91;36.33;100222.56;5531729;32;35487;-70
2023/05/24 12:16:49;;;;;;;3.75;3.12;;;;;;;34.27;34.59;100220.25;5529415;32;34890;-72
2023/05/24 12:19:53;;;;;;;4.30;3.40;;;;;;;31.56;38.23;100219.63;5529293;32;33888;-70
2023/05/24 12:23:00;;;;;;;4.62;3.10;;;;;;;29.87;41.83;100217.75;5531971;32;34021;-69
2023/05/24 12:26:04;;;;;;;5.72;2.87;;;;;;;31.37;40.55;100215.09;5529228;32;34145;-68
2023/05/24 12:29:10;;;;;;;5.68;3.72;;;;;;;31.78;39.29;100217.72;5527983;32;34236;-72
2023/05/24 12:32:14;;;;;;;4.90;3.65;;;;;;;29.16;44.77;100218.00;5536709;32;34242;-71
2023/05/24 12:35:20;;;;;;;4.47;3.17;;;;;;;29.91;42.48;100210.63;5543970;32;33884;-72
2023/05/24 12:38:25;;;;;;;3.70;3.08;;;;;;;30.01;43.37;100212.38;5540897;32;34538;-71
2023/05/24 12:41:29;;;;;;;9.52;3.17;;;;;;;30.72;41.03;100205.56;5544374;32;34254;-71
2023/05/24 12:44:35;;;;;;;12.00;3.47;;;;;;;31.59;39.63;100203.37;5535476;32;34333;-70
2023/05/24 12:47:41;;;;;;;5.60;3.08;;;;;;;28.30;45.04;100210.84;5529750;32;34114;-69
2023/05/24 12:50:50;;;;;;;4.20;3.47;;;;;;;27.85;47.40;100190.25;5529277;32;33828;-68
2023/05/24 12:54:00;;;;;;;4.65;3.47;;;;;;;27.70;47.48;100190.38;5516292;32;34919;-69
2023/05/24 12:57:04;;;;;;;4.85;3.20;;;;;;;29.53;43.35;100187.97;5528389;32;34107;-74
2023/05/24 13:00:10;;;;;;;3.92;3.15;;;;;;;33.07;37.21;100192.75;5523359;32;34144;-72
2023/05/24 13:03:14;;;;;;;8.30;3.30;;;;;;;32.89;37.12;100191.12;5525184;32;34117;-72
2023/05/24 13:06:20;;;;;;;4.75;2.70;;;;;;;31.31;40.00;100186.19;5528862;32;34064;-70
2023/05/24 13:09:24;;;;;;;3.80;2.80;;;;;;;31.38;38.70;100183.00;5528097;32;34381;-71
2023/05/24 13:12:28;;;;;;;5.82;2.90;;;;;;;31.94;38.18;100187.97;5530564;32;34883;-72
2023/05/24 13:15:31;;;;;;;5.75;2.80;;;;;;;33.50;35.73;100185.34;5527533;32;33859;-70
2023/05/24 13:18:37;;;;;;;31.12;4.07;;;;;;;33.12;36.69;100184.34;5526877;32;34334;-72
2023/05/24 13:21:42;;;;;;;6.18;2.90;;;;;;;34.78;33.46;100191.66;5528685;32;34786;-73
2023/05/24 13:24:46;;;;;;;6.10;2.70;;;;;;;32.13;37.40;100174.03;5528073;32;35130;-71
2023/05/24 13:27:50;;;;;;;5.68;2.55;;;;;;;32.96;35.59;100174.97;5513318;32;34275;-71
2023/05/24 13:30:55;;;;;;;7.00;2.78;;;;;;;32.28;36.69;100174.44;5526109;32;34980;-71
2023/05/24 13:34:01;;;;;;;4.18;2.90;;;;;;;31.57;37.94;100178.19;5514659;32;34659;-71
2023/05/24 13:37:06;;;;;;;4.95;2.75;;;;;;;31.19;38.40;100176.88;5528751;32;34153;-71
2023/05/24 13:40:11;;;;;;;3.45;2.65;;;;;;;31.57;38.02;100178.19;5514406;32;35359;-71
2023/05/24 13:43:15;;;;;;;5.07;3.22;;;;;;;34.04;34.01;100181.06;5514989;32;32611;-69
2023/05/24 13:46:19;;;;;;;3.33;2.72;;;;;;;34.03;33.61;100170.41;5514368;32;34998;-70
2023/05/24 13:49:23;;;;;;;9.07;2.97;;;;;;;32.42;36.08;100171.59;5536707;32;34565;-69
2023/05/24 13:52:33;;;;;;;2.97;2.37;;;;;;;33.50;34.23;100162.56;5510492;32;34110;-71
2023/05/24 13:55:41;;;;;;;7.80;2.80;;;;;;;33.43;34.57;100168.53;5517770;32;35209;-71
2023/05/24 13:58:44;;;;;;;6.87;3.08;;;;;;;33.74;33.94;100165.63;5522712;32;33567;-71
2023/05/24 14:01:48;;;;;;;3.70;2.70;;;;;;;33.24;34.59;100159.00;5512708;32;34842;-72
2023/05/24 14:04:54;;;;;;;4.90;2.60;;;;;;;34.88;32.54;100165.66;5514814;32;34784;-71
2023/05/24 14:08:15;;;;;;;4.62;2.65;;;;;;;33.81;34.19;100162.34;5510529;32;34302;-72
2023/05/24 14:11:21;;;;;;;6.62;2.83;;;;;;;30.86;37.77;100157.88;5522780;32;34092;-71
2023/05/24 14:14:24;;;;;;;6.95;3.03;;;;;;;31.59;38.14;100162.25;5527722;32;34019;-73
2023/05/24 14:17:32;;;;;;;5.55;2.95;;;;;;;29.15;41.48;100157.09;5514879;32;34555;-73